createdAt,value
2023-02-21T00:02:11.272Z,20.64
2023-02-21T00:04:56.631Z,20.62
2023-02-21T00:07:41.810Z,20.60
2023-02-21T00:10:26.956Z,20.58
2023-02-21T00:13:11.878Z,20.57
2023-02-21T00:15:56.881Z,20.56
2023-02-21T00:18:42.098Z,20.54
2023-02-21T00:21:26.929Z,20.51
2023-02-21T00:24:11.834Z,20.48
2023-02-21T00:26:56.602Z,20.46
2023-02-21T00:29:41.469Z,20.44
2023-02-21T00:32:26.369Z,20.42
2023-02-21T00:35:11.407Z,20.40
2023-02-21T00:37:56.465Z,20.37
2023-02-21T00:40:41.300Z,20.36
2023-02-21T00:43:26.235Z,20.33
2023-02-21T00:46:11.113Z,20.32
2023-02-21T00:48:56.195Z,20.31
2023-02-21T00:51:41.078Z,20.28
2023-02-21T00:54:26.108Z,20.27
2023-02-21T00:57:11.057Z,20.25
2023-02-21T00:59:56.010Z,20.23
2023-02-21T01:02:41.201Z,20.20
2023-02-21T01:05:26.321Z,20.20
2023-02-21T01:08:11.582Z,20.17
2023-02-21T01:10:56.400Z,20.16
2023-02-21T01:13:41.339Z,20.15
2023-02-21T01:16:26.051Z,20.14
2023-02-21T01:19:10.961Z,20.13
2023-02-21T01:21:55.905Z,20.11
2023-02-21T01:24:41.263Z,20.10
2023-02-21T01:27:26.344Z,20.09
2023-02-21T01:30:11.433Z,20.09
2023-02-21T01:32:56.505Z,20.07
2023-02-21T01:35:41.483Z,20.11
2023-02-21T01:38:26.315Z,20.14
2023-02-21T01:41:11.322Z,20.15
2023-02-21T01:43:56.438Z,20.14
2023-02-21T01:46:41.664Z,20.09
2023-02-21T01:49:33.137Z,20.09
2023-02-21T01:52:18.330Z,20.06
2023-02-21T01:55:04.983Z,20.06
2023-02-21T01:57:49.800Z,20.05
2023-02-21T02:00:35.085Z,20.07
2023-02-21T02:03:24.468Z,20.06
2023-02-21T02:06:29.591Z,20.03
2023-02-21T02:09:14.473Z,20.02
2023-02-21T02:12:18.411Z,20.08
2023-02-21T02:14:50.787Z,20.08
2023-02-21T02:17:36.004Z,20.07
2023-02-21T02:20:38.431Z,20.08
2023-02-21T02:23:10.817Z,20.04
2023-02-21T02:25:43.637Z,20.06
2023-02-21T02:28:16.557Z,20.06
2023-02-21T02:31:01.495Z,20.05
2023-02-21T02:33:27.972Z,20.04
2023-02-21T02:35:57.204Z,20.04
2023-02-21T02:38:23.678Z,20.03
2023-02-21T02:40:58.036Z,20.02
2023-02-21T02:43:39.612Z,19.97
2023-02-21T02:46:16.691Z,19.99
2023-02-21T02:48:43.923Z,19.99
2023-02-21T02:51:11.642Z,19.99
2023-02-21T02:53:38.189Z,19.96
2023-02-21T02:56:05.851Z,19.98
2023-02-21T02:58:42.317Z,19.97
2023-02-21T03:01:27.361Z,19.97
2023-02-21T03:04:12.625Z,19.97
2023-02-21T03:06:46.898Z,19.95
2023-02-21T03:09:13.782Z,19.96
2023-02-21T03:11:43.510Z,19.94
2023-02-21T03:14:13.284Z,19.95
2023-02-21T03:16:41.480Z,19.95
2023-02-21T03:19:09.338Z,19.95
2023-02-21T03:21:37.824Z,20.00
2023-02-21T03:24:04.635Z,20.03
2023-02-21T03:26:32.060Z,20.01
2023-02-21T03:28:58.632Z,20.03
2023-02-21T03:31:26.543Z,20.04
2023-02-21T03:33:53.150Z,20.05
2023-02-21T03:36:19.605Z,20.03
2023-02-21T03:38:46.007Z,20.00
2023-02-21T03:41:12.633Z,20.13
2023-02-21T03:43:39.289Z,20.26
2023-02-21T03:46:05.721Z,20.40
2023-02-21T03:48:32.896Z,20.55
2023-02-21T03:50:59.656Z,20.67
2023-02-21T03:53:26.200Z,20.81
2023-02-21T03:55:52.704Z,20.95
2023-02-21T03:58:19.262Z,21.16
2023-02-21T04:00:45.717Z,21.38
2023-02-21T04:03:12.239Z,21.58
2023-02-21T04:05:38.665Z,21.77
2023-02-21T04:08:05.155Z,21.90
2023-02-21T04:10:35.734Z,22.03
2023-02-21T04:13:04.374Z,22.11
2023-02-21T04:15:30.814Z,22.19
2023-02-21T04:18:00.313Z,22.25
2023-02-21T04:20:26.711Z,22.30
2023-02-21T04:23:02.812Z,22.37
2023-02-21T04:25:30.079Z,22.41
2023-02-21T04:27:56.513Z,22.46
2023-02-21T04:30:23.150Z,22.51
2023-02-21T04:32:49.648Z,22.55
2023-02-21T04:35:16.176Z,22.59
2023-02-21T04:37:45.015Z,22.62
2023-02-21T04:40:11.549Z,22.66
2023-02-21T04:42:38.000Z,22.69
2023-02-21T04:45:04.449Z,22.72
2023-02-21T04:47:30.878Z,22.76
2023-02-21T04:49:57.395Z,22.80
2023-02-21T04:52:23.812Z,22.82
2023-02-21T04:54:50.241Z,22.84
2023-02-21T04:57:16.708Z,22.87
2023-02-21T04:59:43.104Z,22.89
2023-02-21T05:02:09.511Z,22.90
2023-02-21T05:04:36.358Z,22.93
2023-02-21T05:07:02.957Z,22.93
2023-02-21T05:09:29.392Z,22.94
2023-02-21T05:11:55.822Z,22.94
2023-02-21T05:14:22.237Z,22.95
2023-02-21T05:16:48.679Z,22.96
2023-02-21T05:19:27.435Z,22.96
2023-02-21T05:21:57.369Z,22.98
2023-02-21T05:24:24.337Z,22.98
2023-02-21T05:26:50.843Z,22.99
2023-02-21T05:29:17.354Z,23.00
2023-02-21T05:31:43.776Z,23.00
2023-02-21T05:34:10.314Z,23.01
2023-02-21T05:36:36.824Z,23.02
2023-02-21T05:39:03.373Z,23.04
2023-02-21T05:41:29.887Z,23.04
2023-02-21T05:43:56.362Z,23.05
2023-02-21T05:46:26.383Z,23.05
2023-02-21T05:48:52.793Z,23.06
2023-02-21T05:51:19.329Z,23.08
2023-02-21T05:53:45.803Z,23.10
2023-02-21T05:56:12.274Z,23.09
2023-02-21T05:58:38.757Z,23.08
2023-02-21T06:01:05.261Z,23.09
2023-02-21T06:03:31.713Z,23.10
2023-02-21T06:05:58.113Z,23.11
2023-02-21T06:08:24.521Z,23.12
2023-02-21T06:10:50.987Z,23.10
2023-02-21T06:13:17.502Z,22.97
2023-02-21T06:15:43.997Z,22.79
2023-02-21T06:18:12.451Z,22.55
2023-02-21T06:20:38.889Z,22.31
2023-02-21T06:23:05.341Z,22.10
2023-02-21T06:25:32.164Z,21.94
2023-02-21T06:27:58.686Z,21.85
2023-02-21T06:30:25.317Z,21.72
2023-02-21T06:32:51.840Z,21.57
2023-02-21T06:35:18.347Z,21.43
2023-02-21T06:37:44.856Z,21.32
2023-02-21T06:40:11.474Z,21.30
2023-02-21T06:42:38.532Z,21.32
2023-02-21T06:45:05.872Z,21.35
2023-02-21T06:47:32.320Z,21.41
2023-02-21T06:49:58.726Z,21.52
2023-02-21T06:52:25.152Z,21.57
2023-02-21T06:54:51.705Z,21.61
2023-02-21T06:57:18.193Z,21.76
2023-02-21T06:59:44.621Z,21.94
2023-02-21T07:02:18.684Z,22.05
2023-02-21T07:04:45.724Z,22.15
2023-02-21T07:07:12.254Z,22.27
2023-02-21T07:09:38.650Z,22.33
2023-02-21T07:12:05.155Z,22.42
2023-02-21T07:14:31.578Z,22.46
2023-02-21T07:16:57.971Z,22.47
2023-02-21T07:19:24.490Z,22.48
2023-02-21T07:21:50.942Z,22.55
2023-02-21T07:24:17.368Z,22.61
2023-02-21T07:26:43.778Z,22.63
2023-02-21T07:29:10.664Z,22.67
2023-02-21T07:31:37.269Z,22.66
2023-02-21T07:34:03.757Z,22.63
2023-02-21T07:36:30.205Z,22.66
2023-02-21T07:38:56.679Z,22.68
2023-02-21T07:41:23.113Z,22.74
2023-02-21T07:43:49.578Z,22.71
2023-02-21T07:46:16.187Z,22.69
2023-02-21T07:48:42.626Z,22.67
2023-02-21T07:51:11.786Z,22.63
2023-02-21T07:53:46.913Z,22.57
2023-02-21T07:56:13.337Z,22.54
2023-02-21T07:58:39.780Z,22.54
2023-02-21T08:01:06.593Z,22.57
2023-02-21T08:03:35.721Z,22.55
2023-02-21T08:06:02.209Z,22.55
2023-02-21T08:08:28.638Z,22.58
2023-02-21T08:10:55.017Z,22.60
2023-02-21T08:13:21.633Z,22.67
2023-02-21T08:15:48.363Z,22.69
2023-02-21T08:18:20.681Z,22.74
2023-02-21T08:20:47.508Z,22.81
2023-02-21T08:23:13.986Z,22.87
2023-02-21T08:25:43.229Z,22.93
2023-02-21T08:28:09.676Z,22.95
2023-02-21T08:30:36.188Z,23.00
2023-02-21T08:33:05.640Z,23.06
2023-02-21T08:35:34.284Z,23.10
2023-02-21T08:38:04.094Z,23.13
2023-02-21T08:40:30.945Z,23.19
2023-02-21T08:42:58.168Z,23.23
2023-02-21T08:45:24.884Z,23.29
2023-02-21T08:47:51.675Z,23.34
2023-02-21T08:50:18.550Z,23.36
2023-02-21T08:52:48.534Z,23.38
2023-02-21T08:55:15.160Z,23.41
2023-02-21T08:57:44.746Z,23.42
2023-02-21T09:00:11.503Z,23.42
2023-02-21T09:02:41.097Z,23.42
2023-02-21T09:05:08.546Z,23.51
2023-02-21T09:07:35.161Z,23.56
2023-02-21T09:10:01.818Z,23.58
2023-02-21T09:12:28.302Z,23.67
2023-02-21T09:14:54.750Z,23.73
2023-02-21T09:17:21.289Z,23.81
2023-02-21T09:19:47.791Z,23.74
2023-02-21T09:22:14.279Z,23.69
2023-02-21T09:24:41.421Z,23.75
2023-02-21T09:27:07.904Z,23.85
2023-02-21T09:29:45.345Z,23.91
2023-02-21T09:32:12.202Z,23.96
2023-02-21T09:34:38.813Z,24.01
2023-02-21T09:37:06.076Z,24.02
2023-02-21T09:39:32.785Z,24.05
2023-02-21T09:41:59.218Z,24.01
2023-02-21T09:44:27.612Z,24.02
2023-02-21T09:47:04.374Z,23.97
2023-02-21T09:49:48.829Z,23.96
2023-02-21T09:52:20.005Z,23.96
2023-02-21T09:54:46.944Z,24.00
2023-02-21T09:57:16.525Z,23.93
2023-02-21T09:59:42.963Z,23.99
2023-02-21T10:02:16.210Z,24.05
2023-02-21T10:04:45.669Z,24.14
2023-02-21T10:07:12.191Z,24.14
2023-02-21T10:09:41.234Z,24.12
2023-02-21T10:12:17.001Z,24.17
2023-02-21T10:14:49.006Z,24.16
2023-02-21T10:17:20.436Z,24.16
2023-02-21T10:19:51.433Z,24.15
2023-02-21T10:22:22.288Z,24.10
2023-02-21T10:24:52.414Z,24.04
2023-02-21T10:27:18.881Z,23.96
2023-02-21T10:30:05.623Z,23.91
2023-02-21T10:32:32.085Z,23.86
2023-02-21T10:34:58.740Z,23.84
2023-02-21T10:37:40.713Z,23.83
2023-02-21T10:40:16.628Z,23.80
2023-02-21T10:42:54.644Z,23.73
2023-02-21T10:45:21.465Z,23.71
2023-02-21T10:47:57.354Z,23.69
2023-02-21T10:50:36.917Z,23.68
2023-02-21T10:53:03.491Z,23.70
2023-02-21T10:55:33.370Z,23.70
2023-02-21T10:58:06.066Z,23.75
2023-02-21T11:00:36.973Z,23.83
2023-02-21T11:03:23.977Z,23.91
2023-02-21T11:05:54.102Z,23.96
2023-02-21T11:08:35.749Z,23.96
2023-02-21T11:11:03.736Z,23.98
2023-02-21T11:13:30.183Z,23.92
2023-02-21T11:16:07.327Z,23.93
2023-02-21T11:18:33.973Z,23.89
2023-02-21T11:21:10.643Z,23.86
2023-02-21T11:23:37.237Z,23.87
2023-02-21T11:26:11.499Z,23.86
2023-02-21T11:28:43.533Z,23.82
2023-02-21T11:31:29.716Z,23.80
2023-02-21T11:34:03.397Z,23.81
2023-02-21T11:36:34.374Z,23.76
2023-02-21T11:39:19.736Z,23.80
2023-02-21T11:41:52.798Z,23.75
2023-02-21T11:44:35.605Z,23.73
2023-02-21T11:47:21.222Z,23.70
2023-02-21T11:49:51.047Z,23.64
2023-02-21T11:52:44.972Z,23.52
2023-02-21T11:55:19.578Z,23.45
2023-02-21T11:57:56.061Z,23.50
2023-02-21T12:00:41.013Z,23.52
2023-02-21T12:03:16.219Z,23.58
2023-02-21T12:05:48.531Z,23.65
2023-02-21T12:08:18.106Z,23.70
2023-02-21T12:10:59.930Z,23.73
2023-02-21T12:13:29.581Z,23.69
2023-02-21T12:16:14.600Z,23.70
2023-02-21T12:18:59.959Z,23.73
2023-02-21T12:21:29.488Z,23.72
2023-02-21T12:24:07.818Z,23.72
2023-02-21T12:26:52.775Z,23.72
2023-02-21T12:29:22.608Z,23.68
2023-02-21T12:32:15.238Z,23.67
2023-02-21T12:34:41.686Z,23.63
2023-02-21T12:37:11.246Z,23.57
2023-02-21T12:39:39.702Z,23.56
2023-02-21T12:42:22.643Z,23.52
2023-02-21T12:44:51.812Z,23.48
2023-02-21T12:47:19.908Z,23.44
2023-02-21T12:49:58.452Z,23.42
2023-02-21T12:52:27.266Z,23.42
2023-02-21T12:55:00.132Z,23.41
2023-02-21T12:57:49.718Z,23.36
2023-02-21T13:00:22.538Z,23.37
2023-02-21T13:03:01.025Z,23.34
2023-02-21T13:05:34.324Z,23.31
2023-02-21T13:08:01.958Z,23.29
2023-02-21T13:10:30.290Z,23.25
2023-02-21T13:12:58.259Z,23.22
2023-02-21T13:15:26.074Z,23.18
2023-02-21T13:18:03.109Z,23.13
2023-02-21T13:20:36.438Z,23.13
2023-02-21T13:23:21.808Z,23.13
2023-02-21T13:26:04.807Z,23.15
2023-02-21T13:28:31.709Z,23.09
2023-02-21T13:31:01.864Z,23.07
2023-02-21T13:33:38.959Z,23.04
2023-02-21T13:36:20.825Z,23.00
2023-02-21T13:38:47.516Z,23.05
2023-02-21T13:41:17.630Z,23.05
2023-02-21T13:43:47.630Z,23.05
2023-02-21T13:46:24.263Z,23.07
2023-02-21T13:49:09.833Z,23.08
2023-02-21T13:51:47.157Z,23.06
2023-02-21T13:54:13.634Z,23.01
2023-02-21T13:56:41.387Z,22.98
2023-02-21T13:59:23.172Z,22.93
2023-02-21T14:01:50.331Z,22.92
2023-02-21T14:04:35.309Z,22.95
2023-02-21T14:07:02.087Z,22.93
2023-02-21T14:09:28.452Z,22.92
2023-02-21T14:11:55.036Z,22.90
2023-02-21T14:14:21.450Z,22.91
2023-02-21T14:16:59.029Z,22.95
2023-02-21T14:19:35.805Z,22.95
2023-02-21T14:22:21.005Z,22.90
2023-02-21T14:24:50.866Z,22.87
2023-02-21T14:27:17.259Z,22.86
2023-02-21T14:29:44.564Z,22.85
2023-02-21T14:32:11.330Z,22.83
2023-02-21T14:34:42.842Z,22.83
2023-02-21T14:37:27.968Z,22.82
2023-02-21T14:39:55.521Z,22.85
2023-02-21T14:42:40.837Z,22.94
2023-02-21T14:45:10.261Z,23.02
2023-02-21T14:47:46.717Z,23.08
2023-02-21T14:50:32.431Z,23.14
2023-02-21T14:53:01.888Z,23.17
2023-02-21T14:55:29.970Z,23.19
2023-02-21T14:58:05.367Z,23.21
2023-02-21T15:00:33.621Z,23.24
2023-02-21T15:03:18.623Z,23.27
2023-02-21T15:05:45.764Z,23.29
2023-02-21T15:08:19.469Z,23.31
2023-02-21T15:10:46.548Z,23.32
2023-02-21T15:13:20.692Z,23.33
2023-02-21T15:15:47.138Z,23.35
2023-02-21T15:18:25.486Z,23.34
2023-02-21T15:21:04.488Z,23.37
2023-02-21T15:23:31.607Z,23.37
2023-02-21T15:25:59.152Z,23.37
2023-02-21T15:28:26.642Z,23.37
2023-02-21T15:31:00.177Z,23.36
2023-02-21T15:33:28.053Z,23.34
2023-02-21T15:35:57.903Z,23.30
2023-02-21T15:38:41.583Z,23.26
2023-02-21T15:41:09.132Z,23.23
2023-02-21T15:43:42.480Z,23.20
2023-02-21T15:46:09.934Z,23.16
2023-02-21T15:48:36.426Z,23.14
2023-02-21T15:51:03.984Z,23.13
2023-02-21T15:53:30.449Z,23.11
2023-02-21T15:56:15.091Z,23.10
2023-02-21T15:58:41.506Z,23.09
2023-02-21T16:01:09.152Z,23.11
2023-02-21T16:03:35.599Z,23.11
2023-02-21T16:06:09.848Z,23.12
2023-02-21T16:08:36.882Z,23.13
2023-02-21T16:11:04.295Z,23.16
2023-02-21T16:13:38.223Z,23.22
2023-02-21T16:16:05.038Z,23.27
2023-02-21T16:18:31.498Z,23.33
2023-02-21T16:21:01.773Z,23.39
2023-02-21T16:23:31.445Z,23.44
2023-02-21T16:25:58.909Z,23.48
2023-02-21T16:28:25.486Z,23.51
2023-02-21T16:30:52.208Z,23.50
2023-02-21T16:33:18.693Z,23.51
2023-02-21T16:35:45.130Z,23.50
2023-02-21T16:38:13.514Z,23.50
2023-02-21T16:40:39.915Z,23.51
2023-02-21T16:43:06.390Z,23.51
2023-02-21T16:45:32.970Z,23.50
2023-02-21T16:48:01.364Z,23.50
2023-02-21T16:50:29.594Z,23.49
2023-02-21T16:52:56.037Z,23.50
2023-02-21T16:55:22.589Z,23.49
2023-02-21T16:57:49.390Z,23.49
2023-02-21T17:00:16.303Z,23.49
2023-02-21T17:02:43.460Z,23.49
2023-02-21T17:05:09.953Z,23.49
2023-02-21T17:07:36.389Z,23.47
2023-02-21T17:10:02.789Z,23.49
2023-02-21T17:12:29.222Z,23.47
2023-02-21T17:14:55.610Z,23.48
2023-02-21T17:17:22.167Z,23.48
2023-02-21T17:19:48.545Z,23.48
2023-02-21T17:22:15.274Z,23.49
2023-02-21T17:24:42.065Z,23.46
2023-02-21T17:27:08.579Z,23.47
2023-02-21T17:29:35.017Z,23.47
2023-02-21T17:32:07.030Z,23.47
2023-02-21T17:34:34.031Z,23.47
2023-02-21T17:37:00.494Z,23.47
2023-02-21T17:39:27.030Z,23.47
2023-02-21T17:41:53.493Z,23.47
2023-02-21T17:44:20.088Z,23.47
2023-02-21T17:46:54.111Z,23.47
2023-02-21T17:49:21.456Z,23.47
2023-02-21T17:51:49.140Z,23.46
2023-02-21T17:54:20.619Z,23.46
2023-02-21T17:56:47.165Z,23.46
2023-02-21T17:59:13.606Z,23.47
2023-02-21T18:01:41.421Z,23.48
2023-02-21T18:04:08.097Z,23.47
2023-02-21T18:06:34.646Z,23.47
2023-02-21T18:09:02.093Z,23.47
2023-02-21T18:11:28.808Z,23.47
2023-02-21T18:13:58.371Z,23.46
2023-02-21T18:16:24.958Z,23.48
2023-02-21T18:18:51.529Z,23.50
2023-02-21T18:21:18.205Z,23.55
2023-02-21T18:23:44.973Z,23.59
2023-02-21T18:26:11.425Z,23.61
2023-02-21T18:28:37.924Z,23.64
2023-02-21T18:31:04.547Z,23.68
2023-02-21T18:33:30.986Z,23.69
2023-02-21T18:35:57.480Z,23.71
2023-02-21T18:38:24.166Z,23.71
2023-02-21T18:40:50.761Z,23.72
2023-02-21T18:43:20.428Z,23.72
2023-02-21T18:45:47.404Z,23.74
2023-02-21T18:48:14.043Z,23.74
2023-02-21T18:50:40.519Z,23.75
2023-02-21T18:53:10.031Z,23.75
2023-02-21T18:55:36.636Z,23.76
2023-02-21T18:58:03.209Z,23.76
2023-02-21T19:00:29.718Z,23.77
2023-02-21T19:02:56.469Z,23.77
2023-02-21T19:05:23.586Z,23.76
2023-02-21T19:07:51.701Z,23.78
2023-02-21T19:10:21.923Z,23.78
2023-02-21T19:12:48.670Z,23.79
2023-02-21T19:15:15.269Z,23.79
2023-02-21T19:17:43.385Z,23.79
2023-02-21T19:20:10.385Z,23.80
2023-02-21T19:22:36.858Z,23.79
2023-02-21T19:25:03.342Z,23.80
2023-02-21T19:27:32.480Z,23.78
2023-02-21T19:29:58.948Z,23.79
2023-02-21T19:32:25.467Z,23.79
2023-02-21T19:34:52.017Z,23.79
2023-02-21T19:37:18.439Z,23.80
2023-02-21T19:39:44.832Z,23.81
2023-02-21T19:42:13.491Z,23.81
2023-02-21T19:44:39.903Z,23.81
2023-02-21T19:47:06.287Z,23.81
2023-02-21T19:49:32.701Z,23.81
2023-02-21T19:51:59.296Z,23.82
2023-02-21T19:54:27.008Z,23.82
2023-02-21T19:56:53.450Z,23.82
2023-02-21T19:59:19.846Z,23.82
2023-02-21T20:01:46.291Z,23.82
2023-02-21T20:04:12.789Z,23.79
2023-02-21T20:06:39.261Z,23.75
2023-02-21T20:09:06.302Z,23.69
2023-02-21T20:11:32.716Z,23.66
2023-02-21T20:13:59.733Z,23.60
2023-02-21T20:16:28.197Z,23.54
2023-02-21T20:18:55.057Z,23.49
2023-02-21T20:21:22.299Z,23.43
2023-02-21T20:23:49.011Z,23.38
2023-02-21T20:26:15.514Z,23.34
2023-02-21T20:28:41.943Z,23.29
2023-02-21T20:31:10.838Z,23.23
2023-02-21T20:33:37.737Z,23.20
2023-02-21T20:36:04.500Z,23.16
2023-02-21T20:38:30.899Z,23.13
2023-02-21T20:40:57.519Z,23.08
2023-02-21T20:43:25.466Z,23.04
2023-02-21T20:45:52.519Z,22.99
2023-02-21T20:48:19.047Z,22.95
2023-02-21T20:50:46.326Z,22.92
2023-02-21T20:53:12.845Z,22.90
2023-02-21T20:55:40.268Z,22.87
2023-02-21T20:58:06.836Z,22.84
2023-02-21T21:00:36.298Z,22.81
2023-02-21T21:03:03.820Z,22.78
2023-02-21T21:05:30.544Z,22.74
2023-02-21T21:07:57.245Z,22.72
2023-02-21T21:10:23.774Z,22.69
2023-02-21T21:12:51.438Z,22.66
2023-02-21T21:15:18.315Z,22.63
2023-02-21T21:17:44.748Z,22.61
2023-02-21T21:20:14.337Z,22.57
2023-02-21T21:22:41.093Z,22.54
2023-02-21T21:25:08.791Z,22.51
2023-02-21T21:27:35.319Z,22.47
2023-02-21T21:30:01.847Z,22.45
2023-02-21T21:32:28.544Z,22.41
2023-02-21T21:34:55.985Z,22.40
2023-02-21T21:37:23.636Z,22.36
2023-02-21T21:39:54.372Z,22.33
2023-02-21T21:42:21.913Z,22.31
2023-02-21T21:44:51.988Z,22.28
2023-02-21T21:47:25.369Z,22.26
2023-02-21T21:49:51.901Z,22.23
2023-02-21T21:52:19.860Z,22.20
2023-02-21T21:54:46.640Z,22.17
2023-02-21T21:57:13.723Z,22.14
2023-02-21T21:59:41.161Z,22.10
2023-02-21T22:02:10.808Z,22.08
2023-02-21T22:04:37.661Z,22.05
2023-02-21T22:07:04.076Z,22.02
2023-02-21T22:09:31.841Z,22.01
2023-02-21T22:11:58.256Z,21.96
2023-02-21T22:14:24.812Z,21.95
2023-02-21T22:16:51.621Z,21.92
2023-02-21T22:19:18.430Z,21.90
2023-02-21T22:21:44.945Z,21.87
2023-02-21T22:24:13.616Z,21.85
2023-02-21T22:26:40.084Z,21.83
2023-02-21T22:29:06.932Z,21.81
2023-02-21T22:31:33.535Z,21.79
2023-02-21T22:34:02.163Z,21.77
2023-02-21T22:36:29.344Z,21.74
2023-02-21T22:38:55.756Z,21.73
2023-02-21T22:41:28.638Z,21.71
2023-02-21T22:43:55.247Z,21.68
2023-02-21T22:46:22.592Z,21.68
2023-02-21T22:48:49.010Z,21.63
2023-02-21T22:51:16.350Z,21.62
2023-02-21T22:53:43.581Z,21.61
2023-02-21T22:56:12.166Z,21.58
2023-02-21T22:58:38.640Z,21.57
2023-02-21T23:01:08.272Z,21.55
2023-02-21T23:03:35.261Z,21.52
2023-02-21T23:06:02.311Z,21.50
2023-02-21T23:08:31.601Z,21.48
2023-02-21T23:10:58.389Z,21.45
2023-02-21T23:13:24.871Z,21.43
2023-02-21T23:15:51.395Z,21.42
2023-02-21T23:18:20.690Z,21.39
2023-02-21T23:20:48.354Z,21.37
2023-02-21T23:23:14.924Z,21.35
2023-02-21T23:25:41.381Z,21.32
2023-02-21T23:28:08.754Z,21.31
2023-02-21T23:30:40.295Z,21.29
2023-02-21T23:33:26.996Z,21.26
2023-02-21T23:35:54.168Z,21.26
2023-02-21T23:38:22.769Z,21.22
2023-02-21T23:40:50.498Z,21.20
2023-02-21T23:43:17.360Z,21.19
2023-02-21T23:45:44.030Z,21.17
2023-02-21T23:48:15.625Z,21.16
2023-02-21T23:50:45.334Z,21.16
2023-02-21T23:53:18.954Z,21.13
2023-02-21T23:55:46.631Z,21.13
2023-02-21T23:58:16.660Z,21.10
